sensor_id;sensor_type;location;lat;lon;timestamp;P1;durP1;ratioP1;P2;durP2;ratioP2
78783;SDS011;68127;51.050;14.084;2023-11-21T00:02:10;3.50;;;1.48;;
78783;SDS011;68127;51.050;14.084;2023-11-21T00:04:35;3.92;;;1.90;;
78783;SDS011;68127;51.050;14.084;2023-11-21T00:07:01;4.32;;;1.73;;
78783;SDS011;68127;51.050;14.084;2023-11-21T00:09:26;5.05;;;1.73;;
78783;SDS011;68127;51.050;14.084;2023-11-21T00:11:51;3.78;;;1.60;;
78783;SDS011;68127;51.050;14.084;2023-11-21T00:14:16;3.90;;;1.80;;
78783;SDS011;68127;51.050;14.084;2023-11-21T00:16:42;5.28;;;1.83;;
78783;SDS011;68127;51.050;14.084;2023-11-21T00:19:08;3.22;;;1.75;;
78783;SDS011;68127;51.050;14.084;2023-11-21T00:21:33;5.00;;;1.70;;
78783;SDS011;68127;51.050;14.084;2023-11-21T00:23:58;4.95;;;1.90;;
78783;SDS011;68127;51.050;14.084;2023-11-21T00:26:23;4.80;;;1.85;;
78783;SDS011;68127;51.050;14.084;2023-11-21T00:28:49;4.55;;;1.80;;
78783;SDS011;68127;51.050;14.084;2023-11-21T00:31:15;3.83;;;1.58;;
78783;SDS011;68127;51.050;14.084;2023-11-21T00:33:40;5.25;;;1.73;;
78783;SDS011;68127;51.050;14.084;2023-11-21T00:36:06;3.90;;;1.70;;
78783;SDS011;68127;51.050;14.084;2023-11-21T00:38:35;3.40;;;1.70;;
78783;SDS011;68127;51.050;14.084;2023-11-21T00:41:00;3.35;;;1.63;;
78783;SDS011;68127;51.050;14.084;2023-11-21T00:43:26;4.45;;;1.80;;
78783;SDS011;68127;51.050;14.084;2023-11-21T00:45:51;3.22;;;1.75;;
78783;SDS011;68127;51.050;14.084;2023-11-21T00:48:16;4.00;;;1.80;;
78783;SDS011;68127;51.050;14.084;2023-11-21T00:50:42;3.63;;;1.63;;
78783;SDS011;68127;51.050;14.084;2023-11-21T00:53:08;3.22;;;1.60;;
78783;SDS011;68127;51.050;14.084;2023-11-21T00:55:33;3.95;;;1.50;;
78783;SDS011;68127;51.050;14.084;2023-11-21T00:57:59;5.15;;;2.00;;
78783;SDS011;68127;51.050;14.084;2023-11-21T01:00:25;4.63;;;1.90;;
78783;SDS011;68127;51.050;14.084;2023-11-21T01:02:50;4.28;;;1.92;;
78783;SDS011;68127;51.050;14.084;2023-11-21T01:05:15;4.85;;;1.80;;
78783;SDS011;68127;51.050;14.084;2023-11-21T01:07:41;4.50;;;1.80;;
78783;SDS011;68127;51.050;14.084;2023-11-21T01:10:06;4.20;;;2.05;;
78783;SDS011;68127;51.050;14.084;2023-11-21T01:12:36;4.03;;;1.80;;
78783;SDS011;68127;51.050;14.084;2023-11-21T01:15:02;4.00;;;1.90;;
78783;SDS011;68127;51.050;14.084;2023-11-21T01:17:34;4.05;;;1.90;;
78783;SDS011;68127;51.050;14.084;2023-11-21T01:20:00;3.40;;;1.85;;
78783;SDS011;68127;51.050;14.084;2023-11-21T01:22:26;5.47;;;2.03;;
78783;SDS011;68127;51.050;14.084;2023-11-21T01:24:52;5.72;;;1.95;;
78783;SDS011;68127;51.050;14.084;2023-11-21T01:27:18;4.80;;;2.10;;
78783;SDS011;68127;51.050;14.084;2023-11-21T01:29:43;4.38;;;2.20;;
78783;SDS011;68127;51.050;14.084;2023-11-21T01:32:09;5.22;;;2.30;;
78783;SDS011;68127;51.050;14.084;2023-11-21T01:34:34;5.38;;;2.28;;
78783;SDS011;68127;51.050;14.084;2023-11-21T01:37:00;5.57;;;2.20;;
78783;SDS011;68127;51.050;14.084;2023-11-21T01:39:26;5.35;;;2.22;;
78783;SDS011;68127;51.050;14.084;2023-11-21T01:41:51;4.88;;;2.10;;
78783;SDS011;68127;51.050;14.084;2023-11-21T01:44:17;5.35;;;2.20;;
78783;SDS011;68127;51.050;14.084;2023-11-21T01:46:44;4.50;;;2.17;;
78783;SDS011;68127;51.050;14.084;2023-11-21T01:49:10;5.13;;;2.40;;
78783;SDS011;68127;51.050;14.084;2023-11-21T01:51:38;4.53;;;2.20;;
78783;SDS011;68127;51.050;14.084;2023-11-21T01:54:04;6.60;;;3.15;;
78783;SDS011;68127;51.050;14.084;2023-11-21T01:56:30;5.65;;;2.22;;
78783;SDS011;68127;51.050;14.084;2023-11-21T01:58:56;5.15;;;2.33;;
78783;SDS011;68127;51.050;14.084;2023-11-21T02:01:21;5.68;;;2.28;;
78783;SDS011;68127;51.050;14.084;2023-11-21T02:03:47;5.85;;;2.60;;
78783;SDS011;68127;51.050;14.084;2023-11-21T02:06:12;4.90;;;2.28;;
78783;SDS011;68127;51.050;14.084;2023-11-21T02:08:38;6.82;;;2.30;;
78783;SDS011;68127;51.050;14.084;2023-11-21T02:11:04;6.20;;;2.47;;
78783;SDS011;68127;51.050;14.084;2023-11-21T02:13:30;5.38;;;2.47;;
78783;SDS011;68127;51.050;14.084;2023-11-21T02:15:56;6.07;;;2.30;;
78783;SDS011;68127;51.050;14.084;2023-11-21T02:18:21;5.13;;;2.22;;
78783;SDS011;68127;51.050;14.084;2023-11-21T02:20:47;4.32;;;2.50;;
78783;SDS011;68127;51.050;14.084;2023-11-21T02:23:12;4.55;;;2.30;;
78783;SDS011;68127;51.050;14.084;2023-11-21T02:25:37;5.88;;;2.33;;
78783;SDS011;68127;51.050;14.084;2023-11-21T02:28:03;7.13;;;2.45;;
78783;SDS011;68127;51.050;14.084;2023-11-21T02:30:29;4.82;;;2.38;;
78783;SDS011;68127;51.050;14.084;2023-11-21T02:32:56;7.38;;;2.42;;
78783;SDS011;68127;51.050;14.084;2023-11-21T02:35:22;4.43;;;2.28;;
78783;SDS011;68127;51.050;14.084;2023-11-21T02:37:47;5.25;;;2.55;;
78783;SDS011;68127;51.050;14.084;2023-11-21T02:40:13;7.40;;;3.03;;
78783;SDS011;68127;51.050;14.084;2023-11-21T02:42:42;8.07;;;2.58;;
78783;SDS011;68127;51.050;14.084;2023-11-21T02:45:07;9.05;;;3.30;;
78783;SDS011;68127;51.050;14.084;2023-11-21T02:47:33;7.28;;;3.08;;
78783;SDS011;68127;51.050;14.084;2023-11-21T02:49:59;5.07;;;2.60;;
78783;SDS011;68127;51.050;14.084;2023-11-21T02:52:24;5.22;;;2.38;;
78783;SDS011;68127;51.050;14.084;2023-11-21T02:54:50;5.15;;;2.33;;
78783;SDS011;68127;51.050;14.084;2023-11-21T02:57:15;5.45;;;2.30;;
78783;SDS011;68127;51.050;14.084;2023-11-21T02:59:40;5.30;;;2.53;;
78783;SDS011;68127;51.050;14.084;2023-11-21T03:02:05;6.20;;;2.50;;
78783;SDS011;68127;51.050;14.084;2023-11-21T03:04:33;9.07;;;3.08;;
78783;SDS011;68127;51.050;14.084;2023-11-21T03:06:59;4.85;;;2.50;;
78783;SDS011;68127;51.050;14.084;2023-11-21T03:09:25;4.95;;;2.90;;
78783;SDS011;68127;51.050;14.084;2023-11-21T03:11:51;8.10;;;2.95;;
78783;SDS011;68127;51.050;14.084;2023-11-21T03:14:17;6.43;;;2.90;;
78783;SDS011;68127;51.050;14.084;2023-11-21T03:16:42;5.10;;;2.58;;
78783;SDS011;68127;51.050;14.084;2023-11-21T03:19:10;6.40;;;2.47;;
78783;SDS011;68127;51.050;14.084;2023-11-21T03:21:35;5.47;;;2.53;;
78783;SDS011;68127;51.050;14.084;2023-11-21T03:24:00;7.43;;;2.50;;
78783;SDS011;68127;51.050;14.084;2023-11-21T03:26:26;5.00;;;2.33;;
78783;SDS011;68127;51.050;14.084;2023-11-21T03:28:51;8.32;;;2.67;;
78783;SDS011;68127;51.050;14.084;2023-11-21T03:31:18;6.55;;;2.58;;
78783;SDS011;68127;51.050;14.084;2023-11-21T03:33:44;6.43;;;2.60;;
78783;SDS011;68127;51.050;14.084;2023-11-21T03:36:10;5.47;;;2.67;;
78783;SDS011;68127;51.050;14.084;2023-11-21T03:38:36;7.20;;;3.03;;
78783;SDS011;68127;51.050;14.084;2023-11-21T03:41:01;7.60;;;3.30;;
78783;SDS011;68127;51.050;14.084;2023-11-21T03:43:27;8.13;;;3.30;;
78783;SDS011;68127;51.050;14.084;2023-11-21T03:45:52;12.73;;;4.90;;
78783;SDS011;68127;51.050;14.084;2023-11-21T03:48:17;7.15;;;3.08;;
78783;SDS011;68127;51.050;14.084;2023-11-21T03:50:43;7.63;;;3.75;;
78783;SDS011;68127;51.050;14.084;2023-11-21T03:53:08;8.38;;;3.22;;
78783;SDS011;68127;51.050;14.084;2023-11-21T03:55:33;7.07;;;2.65;;
78783;SDS011;68127;51.050;14.084;2023-11-21T03:57:58;5.90;;;2.72;;
78783;SDS011;68127;51.050;14.084;2023-11-21T04:00:24;6.63;;;2.60;;
78783;SDS011;68127;51.050;14.084;2023-11-21T04:02:51;7.15;;;2.63;;
78783;SDS011;68127;51.050;14.084;2023-11-21T04:05:17;5.28;;;2.78;;
78783;SDS011;68127;51.050;14.084;2023-11-21T04:07:42;8.65;;;3.83;;
78783;SDS011;68127;51.050;14.084;2023-11-21T04:10:07;8.68;;;3.65;;
78783;SDS011;68127;51.050;14.084;2023-11-21T04:12:34;9.07;;;3.70;;
78783;SDS011;68127;51.050;14.084;2023-11-21T04:15:00;7.93;;;3.65;;
78783;SDS011;68127;51.050;14.084;2023-11-21T04:17:25;8.65;;;3.42;;
78783;SDS011;68127;51.050;14.084;2023-11-21T04:19:50;9.43;;;3.47;;
78783;SDS011;68127;51.050;14.084;2023-11-21T04:22:16;9.95;;;3.53;;
78783;SDS011;68127;51.050;14.084;2023-11-21T04:24:41;8.75;;;3.00;;
78783;SDS011;68127;51.050;14.084;2023-11-21T04:27:06;5.72;;;3.00;;
78783;SDS011;68127;51.050;14.084;2023-11-21T04:29:31;9.73;;;3.30;;
78783;SDS011;68127;51.050;14.084;2023-11-21T04:31:57;9.15;;;3.90;;
78783;SDS011;68127;51.050;14.084;2023-11-21T04:34:22;8.35;;;3.90;;
78783;SDS011;68127;51.050;14.084;2023-11-21T04:36:47;7.93;;;2.88;;
78783;SDS011;68127;51.050;14.084;2023-11-21T04:39:13;7.93;;;4.00;;
78783;SDS011;68127;51.050;14.084;2023-11-21T04:41:38;6.72;;;3.00;;
78783;SDS011;68127;51.050;14.084;2023-11-21T04:44:05;8.90;;;3.03;;
78783;SDS011;68127;51.050;14.084;2023-11-21T04:46:30;7.10;;;3.10;;
78783;SDS011;68127;51.050;14.084;2023-11-21T04:48:56;7.15;;;3.60;;
78783;SDS011;68127;51.050;14.084;2023-11-21T04:51:22;4.63;;;2.97;;
78783;SDS011;68127;51.050;14.084;2023-11-21T04:53:47;6.80;;;2.83;;
78783;SDS011;68127;51.050;14.084;2023-11-21T04:56:12;7.78;;;3.10;;
78783;SDS011;68127;51.050;14.084;2023-11-21T04:58:37;5.65;;;3.08;;
78783;SDS011;68127;51.050;14.084;2023-11-21T05:01:04;5.60;;;3.20;;
78783;SDS011;68127;51.050;14.084;2023-11-21T05:03:30;7.53;;;3.33;;
78783;SDS011;68127;51.050;14.084;2023-11-21T05:05:56;9.55;;;2.83;;
78783;SDS011;68127;51.050;14.084;2023-11-21T05:08:21;7.15;;;2.97;;
78783;SDS011;68127;51.050;14.084;2023-11-21T05:10:47;8.82;;;3.67;;
78783;SDS011;68127;51.050;14.084;2023-11-21T05:13:13;8.85;;;3.25;;
78783;SDS011;68127;51.050;14.084;2023-11-21T05:15:40;8.93;;;2.92;;
78783;SDS011;68127;51.050;14.084;2023-11-21T05:18:06;10.82;;;3.33;;
78783;SDS011;68127;51.050;14.084;2023-11-21T05:20:31;7.65;;;3.10;;
78783;SDS011;68127;51.050;14.084;2023-11-21T05:22:58;8.93;;;3.30;;
78783;SDS011;68127;51.050;14.084;2023-11-21T05:25:23;7.07;;;2.80;;
78783;SDS011;68127;51.050;14.084;2023-11-21T05:27:49;8.48;;;3.10;;
78783;SDS011;68127;51.050;14.084;2023-11-21T05:30:15;6.65;;;2.95;;
78783;SDS011;68127;51.050;14.084;2023-11-21T05:32:40;7.07;;;3.08;;
78783;SDS011;68127;51.050;14.084;2023-11-21T05:35:09;6.72;;;3.50;;
78783;SDS011;68127;51.050;14.084;2023-11-21T05:37:39;7.10;;;2.72;;
78783;SDS011;68127;51.050;14.084;2023-11-21T05:40:04;10.25;;;3.58;;
78783;SDS011;68127;51.050;14.084;2023-11-21T05:42:31;10.27;;;2.92;;
78783;SDS011;68127;51.050;14.084;2023-11-21T05:44:58;7.40;;;3.17;;
78783;SDS011;68127;51.050;14.084;2023-11-21T05:47:39;11.63;;;3.53;;
78783;SDS011;68127;51.050;14.084;2023-11-21T05:50:05;8.18;;;3.00;;
78783;SDS011;68127;51.050;14.084;2023-11-21T05:52:34;10.65;;;3.60;;
78783;SDS011;68127;51.050;14.084;2023-11-21T05:54:59;7.97;;;3.75;;
78783;SDS011;68127;51.050;14.084;2023-11-21T05:57:25;8.00;;;3.50;;
78783;SDS011;68127;51.050;14.084;2023-11-21T05:59:50;8.40;;;3.30;;
78783;SDS011;68127;51.050;14.084;2023-11-21T06:02:16;7.82;;;3.35;;
78783;SDS011;68127;51.050;14.084;2023-11-21T06:04:41;10.10;;;4.05;;
78783;SDS011;68127;51.050;14.084;2023-11-21T06:07:07;9.73;;;3.50;;
78783;SDS011;68127;51.050;14.084;2023-11-21T06:09:32;7.25;;;4.07;;
78783;SDS011;68127;51.050;14.084;2023-11-21T06:11:57;11.27;;;4.03;;
78783;SDS011;68127;51.050;14.084;2023-11-21T06:14:23;8.40;;;3.95;;
78783;SDS011;68127;51.050;14.084;2023-11-21T06:16:48;10.95;;;4.00;;
78783;SDS011;68127;51.050;14.084;2023-11-21T06:19:15;15.38;;;4.10;;
78783;SDS011;68127;51.050;14.084;2023-11-21T06:21:41;10.75;;;4.00;;
78783;SDS011;68127;51.050;14.084;2023-11-21T06:24:10;8.02;;;3.70;;
78783;SDS011;68127;51.050;14.084;2023-11-21T06:26:35;11.32;;;4.00;;
78783;SDS011;68127;51.050;14.084;2023-11-21T06:29:01;11.18;;;4.15;;
78783;SDS011;68127;51.050;14.084;2023-11-21T06:31:27;10.23;;;4.22;;
78783;SDS011;68127;51.050;14.084;2023-11-21T06:33:53;8.80;;;4.03;;
78783;SDS011;68127;51.050;14.084;2023-11-21T06:36:19;13.13;;;4.28;;
78783;SDS011;68127;51.050;14.084;2023-11-21T06:38:53;10.52;;;4.32;;
78783;SDS011;68127;51.050;14.084;2023-11-21T06:41:24;8.90;;;4.55;;
78783;SDS011;68127;51.050;14.084;2023-11-21T06:43:49;8.30;;;3.85;;
78783;SDS011;68127;51.050;14.084;2023-11-21T06:46:14;11.55;;;4.38;;
78783;SDS011;68127;51.050;14.084;2023-11-21T06:48:42;8.70;;;3.78;;
78783;SDS011;68127;51.050;14.084;2023-11-21T06:51:07;9.68;;;4.72;;
78783;SDS011;68127;51.050;14.084;2023-11-21T06:53:33;10.05;;;4.47;;
78783;SDS011;68127;51.050;14.084;2023-11-21T06:55:58;11.52;;;4.10;;
78783;SDS011;68127;51.050;14.084;2023-11-21T06:58:24;11.52;;;4.45;;
78783;SDS011;68127;51.050;14.084;2023-11-21T07:00:49;10.20;;;4.30;;
78783;SDS011;68127;51.050;14.084;2023-11-21T07:03:15;11.00;;;3.70;;
78783;SDS011;68127;51.050;14.084;2023-11-21T07:05:40;9.25;;;4.22;;
78783;SDS011;68127;51.050;14.084;2023-11-21T07:08:05;10.15;;;4.45;;
78783;SDS011;68127;51.050;14.084;2023-11-21T07:10:32;11.80;;;4.63;;
78783;SDS011;68127;51.050;14.084;2023-11-21T07:12:57;13.27;;;4.63;;
78783;SDS011;68127;51.050;14.084;2023-11-21T07:15:23;15.80;;;4.55;;
78783;SDS011;68127;51.050;14.084;2023-11-21T07:17:50;11.10;;;4.28;;
78783;SDS011;68127;51.050;14.084;2023-11-21T07:20:16;12.07;;;4.70;;
78783;SDS011;68127;51.050;14.084;2023-11-21T07:22:42;11.98;;;3.97;;
78783;SDS011;68127;51.050;14.084;2023-11-21T07:25:07;15.93;;;4.78;;
78783;SDS011;68127;51.050;14.084;2023-11-21T07:27:34;13.18;;;4.82;;
78783;SDS011;68127;51.050;14.084;2023-11-21T07:30:00;15.65;;;5.45;;
78783;SDS011;68127;51.050;14.084;2023-11-21T07:32:29;12.63;;;5.03;;
78783;SDS011;68127;51.050;14.084;2023-11-21T07:34:54;11.45;;;5.70;;
78783;SDS011;68127;51.050;14.084;2023-11-21T07:37:22;13.43;;;5.05;;
78783;SDS011;68127;51.050;14.084;2023-11-21T07:39:47;15.45;;;5.13;;
78783;SDS011;68127;51.050;14.084;2023-11-21T07:42:12;15.55;;;6.00;;
78783;SDS011;68127;51.050;14.084;2023-11-21T07:44:38;15.80;;;6.15;;
78783;SDS011;68127;51.050;14.084;2023-11-21T07:47:03;15.20;;;5.60;;
78783;SDS011;68127;51.050;14.084;2023-11-21T07:49:29;14.25;;;5.75;;
78783;SDS011;68127;51.050;14.084;2023-11-21T07:51:55;12.77;;;6.10;;
78783;SDS011;68127;51.050;14.084;2023-11-21T07:54:20;13.52;;;5.47;;
78783;SDS011;68127;51.050;14.084;2023-11-21T07:56:46;12.82;;;6.00;;
78783;SDS011;68127;51.050;14.084;2023-11-21T07:59:11;16.13;;;6.20;;
78783;SDS011;68127;51.050;14.084;2023-11-21T08:01:37;15.40;;;5.82;;
78783;SDS011;68127;51.050;14.084;2023-11-21T08:04:02;17.40;;;6.63;;
78783;SDS011;68127;51.050;14.084;2023-11-21T08:06:29;23.90;;;5.75;;
78783;SDS011;68127;51.050;14.084;2023-11-21T08:08:55;21.27;;;6.50;;
78783;SDS011;68127;51.050;14.084;2023-11-21T08:11:20;16.10;;;7.00;;
78783;SDS011;68127;51.050;14.084;2023-11-21T08:13:46;16.95;;;6.93;;
78783;SDS011;68127;51.050;14.084;2023-11-21T08:16:11;14.82;;;6.70;;
78783;SDS011;68127;51.050;14.084;2023-11-21T08:18:37;14.10;;;6.95;;
78783;SDS011;68127;51.050;14.084;2023-11-21T08:21:02;16.73;;;7.43;;
78783;SDS011;68127;51.050;14.084;2023-11-21T08:23:29;13.00;;;6.78;;
78783;SDS011;68127;51.050;14.084;2023-11-21T08:25:54;16.33;;;6.57;;
78783;SDS011;68127;51.050;14.084;2023-11-21T08:28:20;16.67;;;6.88;;
78783;SDS011;68127;51.050;14.084;2023-11-21T08:30:50;18.65;;;7.07;;
78783;SDS011;68127;51.050;14.084;2023-11-21T08:33:16;18.38;;;6.68;;
78783;SDS011;68127;51.050;14.084;2023-11-21T08:35:41;16.52;;;6.82;;
78783;SDS011;68127;51.050;14.084;2023-11-21T08:38:06;17.20;;;7.38;;
78783;SDS011;68127;51.050;14.084;2023-11-21T08:40:32;14.45;;;7.50;;
78783;SDS011;68127;51.050;14.084;2023-11-21T08:42:57;18.42;;;6.60;;
78783;SDS011;68127;51.050;14.084;2023-11-21T08:45:24;15.38;;;7.43;;
78783;SDS011;68127;51.050;14.084;2023-11-21T08:47:50;20.20;;;6.72;;
78783;SDS011;68127;51.050;14.084;2023-11-21T08:50:16;19.38;;;6.80;;
78783;SDS011;68127;51.050;14.084;2023-11-21T08:52:41;16.98;;;7.55;;
78783;SDS011;68127;51.050;14.084;2023-11-21T08:55:07;13.43;;;6.80;;
78783;SDS011;68127;51.050;14.084;2023-11-21T08:57:33;17.15;;;7.80;;
78783;SDS011;68127;51.050;14.084;2023-11-21T09:00:00;16.38;;;6.93;;
78783;SDS011;68127;51.050;14.084;2023-11-21T09:02:25;16.02;;;6.32;;
78783;SDS011;68127;51.050;14.084;2023-11-21T09:04:51;11.43;;;5.97;;
78783;SDS011;68127;51.050;14.084;2023-11-21T09:07:17;13.55;;;5.93;;
78783;SDS011;68127;51.050;14.084;2023-11-21T09:09:44;10.73;;;5.78;;
78783;SDS011;68127;51.050;14.084;2023-11-21T09:12:09;9.85;;;5.00;;
78783;SDS011;68127;51.050;14.084;2023-11-21T09:14:36;10.13;;;5.13;;
78783;SDS011;68127;51.050;14.084;2023-11-21T09:17:01;9.45;;;4.45;;
78783;SDS011;68127;51.050;14.084;2023-11-21T09:19:26;7.15;;;3.95;;
78783;SDS011;68127;51.050;14.084;2023-11-21T09:21:51;11.30;;;4.40;;
78783;SDS011;68127;51.050;14.084;2023-11-21T09:24:17;9.45;;;4.53;;
78783;SDS011;68127;51.050;14.084;2023-11-21T09:26:43;6.00;;;3.38;;
78783;SDS011;68127;51.050;14.084;2023-11-21T09:29:08;6.47;;;3.70;;
78783;SDS011;68127;51.050;14.084;2023-11-21T09:31:34;9.88;;;4.22;;
78783;SDS011;68127;51.050;14.084;2023-11-21T09:34:00;8.23;;;4.07;;
78783;SDS011;68127;51.050;14.084;2023-11-21T09:36:27;9.82;;;3.60;;
78783;SDS011;68127;51.050;14.084;2023-11-21T09:38:54;8.07;;;3.75;;
78783;SDS011;68127;51.050;14.084;2023-11-21T09:41:25;5.85;;;3.58;;
78783;SDS011;68127;51.050;14.084;2023-11-21T09:44:13;8.95;;;3.95;;
78783;SDS011;68127;51.050;14.084;2023-11-21T09:46:42;7.78;;;4.13;;
78783;SDS011;68127;51.050;14.084;2023-11-21T09:49:08;5.85;;;3.92;;
78783;SDS011;68127;51.050;14.084;2023-11-21T09:51:43;6.63;;;4.00;;
78783;SDS011;68127;51.050;14.084;2023-11-21T09:54:10;7.00;;;4.18;;
78783;SDS011;68127;51.050;14.084;2023-11-21T09:56:37;8.90;;;4.30;;
78783;SDS011;68127;51.050;14.084;2023-11-21T09:59:03;8.98;;;4.72;;
78783;SDS011;68127;51.050;14.084;2023-11-21T10:01:35;6.43;;;4.10;;
78783;SDS011;68127;51.050;14.084;2023-11-21T10:04:01;7.93;;;4.85;;
78783;SDS011;68127;51.050;14.084;2023-11-21T10:06:26;7.70;;;3.97;;
78783;SDS011;68127;51.050;14.084;2023-11-21T10:08:53;7.53;;;3.95;;
78783;SDS011;68127;51.050;14.084;2023-11-21T10:11:20;4.68;;;2.20;;
78783;SDS011;68127;51.050;14.084;2023-11-21T10:13:46;4.28;;;2.50;;
78783;SDS011;68127;51.050;14.084;2023-11-21T10:16:14;4.10;;;2.45;;
78783;SDS011;68127;51.050;14.084;2023-11-21T10:18:41;4.85;;;2.30;;
78783;SDS011;68127;51.050;14.084;2023-11-21T10:21:07;4.32;;;2.05;;
78783;SDS011;68127;51.050;14.084;2023-11-21T10:23:34;9.32;;;2.90;;
78783;SDS011;68127;51.050;14.084;2023-11-21T10:25:59;9.52;;;2.70;;
78783;SDS011;68127;51.050;14.084;2023-11-21T10:28:25;8.70;;;3.17;;
78783;SDS011;68127;51.050;14.084;2023-11-21T10:30:50;73.22;;;5.32;;
78783;SDS011;68127;51.050;14.084;2023-11-21T10:33:16;8.10;;;3.80;;
78783;SDS011;68127;51.050;14.084;2023-11-21T10:38:06;15.38;;;5.97;;
78783;SDS011;68127;51.050;14.084;2023-11-21T10:40:37;8.52;;;5.30;;
78783;SDS011;68127;51.050;14.084;2023-11-21T10:43:07;8.18;;;5.05;;
78783;SDS011;68127;51.050;14.084;2023-11-21T10:45:37;8.35;;;5.28;;
78783;SDS011;68127;51.050;14.084;2023-11-21T10:48:07;35.70;;;5.57;;
78783;SDS011;68127;51.050;14.084;2023-11-21T10:50:33;8.80;;;5.28;;
78783;SDS011;68127;51.050;14.084;2023-11-21T10:53:01;9.35;;;5.18;;
78783;SDS011;68127;51.050;14.084;2023-11-21T10:55:27;81.30;;;7.32;;
78783;SDS011;68127;51.050;14.084;2023-11-21T10:57:53;8.70;;;5.03;;
78783;SDS011;68127;51.050;14.084;2023-11-21T11:00:19;8.02;;;4.45;;
78783;SDS011;68127;51.050;14.084;2023-11-21T11:02:50;6.57;;;4.10;;
78783;SDS011;68127;51.050;14.084;2023-11-21T11:05:19;8.95;;;4.60;;
78783;SDS011;68127;51.050;14.084;2023-11-21T11:07:45;10.75;;;6.55;;
78783;SDS011;68127;51.050;14.084;2023-11-21T11:10:13;13.38;;;7.55;;
78783;SDS011;68127;51.050;14.084;2023-11-21T11:12:39;14.68;;;8.30;;
78783;SDS011;68127;51.050;14.084;2023-11-21T11:15:06;11.27;;;7.00;;
78783;SDS011;68127;51.050;14.084;2023-11-21T11:17:34;12.10;;;7.32;;
78783;SDS011;68127;51.050;14.084;2023-11-21T11:20:00;11.32;;;6.78;;
78783;SDS011;68127;51.050;14.084;2023-11-21T11:22:37;11.65;;;6.90;;
78783;SDS011;68127;51.050;14.084;2023-11-21T11:27:56;13.73;;;8.02;;
78783;SDS011;68127;51.050;14.084;2023-11-21T11:36:21;14.85;;;9.40;;
78783;SDS011;68127;51.050;14.084;2023-11-21T11:38:48;17.27;;;10.63;;
78783;SDS011;68127;51.050;14.084;2023-11-21T11:41:27;11.68;;;6.38;;
78783;SDS011;68127;51.050;14.084;2023-11-21T11:43:54;12.35;;;7.93;;
78783;SDS011;68127;51.050;14.084;2023-11-21T11:46:20;12.00;;;7.22;;
78783;SDS011;68127;51.050;14.084;2023-11-21T11:48:48;12.98;;;6.70;;
78783;SDS011;68127;51.050;14.084;2023-11-21T11:51:28;11.10;;;6.45;;
78783;SDS011;68127;51.050;14.084;2023-11-21T11:53:53;13.90;;;7.10;;
78783;SDS011;68127;51.050;14.084;2023-11-21T11:56:20;12.60;;;7.63;;
78783;SDS011;68127;51.050;14.084;2023-11-21T11:58:50;25.92;;;7.13;;
78783;SDS011;68127;51.050;14.084;2023-11-21T12:01:19;11.48;;;6.38;;
78783;SDS011;68127;51.050;14.084;2023-11-21T12:03:44;13.02;;;6.65;;
78783;SDS011;68127;51.050;14.084;2023-11-21T12:06:10;16.35;;;7.90;;
78783;SDS011;68127;51.050;14.084;2023-11-21T12:08:36;13.73;;;7.97;;
78783;SDS011;68127;51.050;14.084;2023-11-21T12:11:02;13.05;;;7.63;;
78783;SDS011;68127;51.050;14.084;2023-11-21T12:13:27;12.38;;;6.90;;
78783;SDS011;68127;51.050;14.084;2023-11-21T12:15:53;11.98;;;6.85;;
78783;SDS011;68127;51.050;14.084;2023-11-21T12:18:19;15.00;;;8.23;;
78783;SDS011;68127;51.050;14.084;2023-11-21T12:20:46;13.90;;;9.18;;
78783;SDS011;68127;51.050;14.084;2023-11-21T12:23:13;15.15;;;8.93;;
78783;SDS011;68127;51.050;14.084;2023-11-21T12:25:41;12.13;;;7.07;;
78783;SDS011;68127;51.050;14.084;2023-11-21T12:28:08;12.25;;;7.07;;
78783;SDS011;68127;51.050;14.084;2023-11-21T12:30:34;12.95;;;6.72;;
78783;SDS011;68127;51.050;14.084;2023-11-21T12:33:00;12.45;;;6.72;;
78783;SDS011;68127;51.050;14.084;2023-11-21T12:35:27;15.18;;;7.40;;
78783;SDS011;68127;51.050;14.084;2023-11-21T12:37:55;80.93;;;9.07;;
78783;SDS011;68127;51.050;14.084;2023-11-21T12:40:22;32.28;;;7.93;;
78783;SDS011;68127;51.050;14.084;2023-11-21T12:42:48;13.10;;;7.28;;
78783;SDS011;68127;51.050;14.084;2023-11-21T12:47:42;12.88;;;7.55;;
78783;SDS011;68127;51.050;14.084;2023-11-21T12:50:09;15.23;;;7.78;;
78783;SDS011;68127;51.050;14.084;2023-11-21T12:52:41;22.03;;;7.63;;
78783;SDS011;68127;51.050;14.084;2023-11-21T12:55:09;13.52;;;7.20;;
78783;SDS011;68127;51.050;14.084;2023-11-21T12:57:34;41.45;;;7.90;;
78783;SDS011;68127;51.050;14.084;2023-11-21T13:00:03;14.82;;;7.05;;
78783;SDS011;68127;51.050;14.084;2023-11-21T13:02:37;33.92;;;9.18;;
78783;SDS011;68127;51.050;14.084;2023-11-21T13:05:03;62.65;;;10.45;;
78783;SDS011;68127;51.050;14.084;2023-11-21T13:07:40;38.03;;;8.57;;
78783;SDS011;68127;51.050;14.084;2023-11-21T13:10:11;15.82;;;8.63;;
78783;SDS011;68127;51.050;14.084;2023-11-21T13:12:37;25.60;;;9.13;;
78783;SDS011;68127;51.050;14.084;2023-11-21T13:15:08;24.40;;;9.30;;
78783;SDS011;68127;51.050;14.084;2023-11-21T13:17:34;19.90;;;9.07;;
78783;SDS011;68127;51.050;14.084;2023-11-21T13:20:00;16.50;;;9.38;;
78783;SDS011;68127;51.050;14.084;2023-11-21T13:22:30;17.95;;;9.98;;
78783;SDS011;68127;51.050;14.084;2023-11-21T13:24:57;14.00;;;6.63;;
78783;SDS011;68127;51.050;14.084;2023-11-21T13:27:23;9.90;;;5.15;;
78783;SDS011;68127;51.050;14.084;2023-11-21T13:29:50;10.15;;;5.88;;
78783;SDS011;68127;51.050;14.084;2023-11-21T13:32:16;12.23;;;5.82;;
78783;SDS011;68127;51.050;14.084;2023-11-21T13:34:45;13.20;;;7.65;;
78783;SDS011;68127;51.050;14.084;2023-11-21T13:37:12;14.23;;;8.45;;
78783;SDS011;68127;51.050;14.084;2023-11-21T13:39:37;17.17;;;8.40;;
78783;SDS011;68127;51.050;14.084;2023-11-21T13:42:09;14.27;;;7.55;;
78783;SDS011;68127;51.050;14.084;2023-11-21T13:44:36;18.00;;;9.93;;
78783;SDS011;68127;51.050;14.084;2023-11-21T13:47:03;15.20;;;7.85;;
78783;SDS011;68127;51.050;14.084;2023-11-21T13:49:30;14.48;;;7.70;;
78783;SDS011;68127;51.050;14.084;2023-11-21T13:52:00;14.95;;;7.70;;
78783;SDS011;68127;51.050;14.084;2023-11-21T13:54:27;12.45;;;6.72;;
78783;SDS011;68127;51.050;14.084;2023-11-21T13:56:53;14.13;;;6.95;;
78783;SDS011;68127;51.050;14.084;2023-11-21T13:59:19;14.85;;;7.20;;
78783;SDS011;68127;51.050;14.084;2023-11-21T14:01:53;12.68;;;6.90;;
78783;SDS011;68127;51.050;14.084;2023-11-21T14:04:22;16.35;;;7.78;;
78783;SDS011;68127;51.050;14.084;2023-11-21T14:06:51;15.60;;;8.48;;
78783;SDS011;68127;51.050;14.084;2023-11-21T14:09:20;21.15;;;8.95;;
78783;SDS011;68127;51.050;14.084;2023-11-21T14:12:00;36.00;;;9.65;;
78783;SDS011;68127;51.050;14.084;2023-11-21T14:14:28;30.35;;;9.80;;
78783;SDS011;68127;51.050;14.084;2023-11-21T14:16:53;28.90;;;8.35;;
78783;SDS011;68127;51.050;14.084;2023-11-21T14:19:20;21.00;;;8.68;;
78783;SDS011;68127;51.050;14.084;2023-11-21T14:21:46;16.90;;;7.60;;
78783;SDS011;68127;51.050;14.084;2023-11-21T14:24:12;19.52;;;8.38;;
78783;SDS011;68127;51.050;14.084;2023-11-21T14:26:43;15.25;;;6.43;;
78783;SDS011;68127;51.050;14.084;2023-11-21T14:29:11;15.65;;;7.07;;
78783;SDS011;68127;51.050;14.084;2023-11-21T14:31:40;11.57;;;5.82;;
78783;SDS011;68127;51.050;14.084;2023-11-21T14:34:06;12.02;;;5.80;;
78783;SDS011;68127;51.050;14.084;2023-11-21T14:36:32;11.68;;;5.88;;
78783;SDS011;68127;51.050;14.084;2023-11-21T14:38:57;12.75;;;7.05;;